Country
Station

 

Weather  for  Sussex, Sussex Airport  -  United States    United States

  
17 °C (63 °F)
    
 
 

Current METAR for Sussex, Sussex Airport is :

KFWN 021053Z AUTO 00000KT 10SM CLR 17/17 A2988 RMK AO2 SLP115 T01720167

 

This is a report for Sussex, Sussex Airport - United States.
 
The report was made 25 minutes ago, at 10:53 UTC .
The wind was calm.
 
The temperature was 17 °C (63 °F), with a dew-point at 17 °C (63 °F).
The atmospheric pressure was 1012 hPa (29.88 inHg).
The relative humidity was 100.0%.
 
The sky was clear.
 
The overall visibility was 16.1 kilometers (10.0 miles).
 

 
 
 
 

Country :   A   B   C   D   E   F   G   H   I   J   K   L   M   N   O   P   Q   R   S   T   U   V   W   Y   Z

 

Site Info  |  Disclaimer  |  Credits  |  Privacy
Contact us  |  Add to favorites
© 2013-2020 METARs - All rights reserved